Terminal Aerodrome Forecast
Issued by NWS

Home | Current Version | Previous Version | Text Only | Print | Product List | Glossary On
Versions: 1 2 3 4 5 6 7 8 9 10 11 12
341
FTUS42 TJSJ 090536
TAFJBQ
TAF
TJBQ 090536Z 0906/1006 VRB06KT P6SM SKC
     FM091430 03010KT P6SM FEW030 SCT050
     FM092300 VRB06KT P6SM FEW025
      AMD NOT SKED TIL 091100=

USA.gov is the U.S. government's official web portal to all federal, state and local government web resources and services.